Accueil
METAR-TAF:

METAR-TAF

Aéroports :

Châlons-en-Champagne, France

Aéroport Paris Vatry

latitude: 48-46-34N, longitude: 004-11-04E, altitude: 179 m

Observation

Le bulletin a été fait il y a 20 minutes, à 18:30 UTC
Vent 7 kt de est/sud-est
Température 17°C
Humidité 72%
Pression 1016 hPa
Visibilité 10 km ou plus
pas de nuages en-dessous de 1500 mètres et pas de cumulonimbus.

METAR: LFOK 171830Z AUTO 11007KT CAVOK 17/12 Q1016 NOSIG

Heure: 20:50 (18:50 UTC)

Prévision

Le bulletin a été fait il y a 1 heure et 50 minutes, à 17:00 UTC
Prévision valable du 17 à 18 UTC au 18 à 18 UTC
Vent 3 kt de direction variable
Visibilité 10 km ou plus
Nuages épars à une hauteur de 4000 ft
Probabilité 30% :
Temporairement
du 18 à 06 UTC au 18 à 08 UTC
Visibilité: 0500 m
bancs de brouillard

TAF: LFOK 171700Z 1718/1818 VRB03KT 9999 SCT040 PROB30 TEMPO 1806/1808 0500 BCFG

Observations et prévisions météorologiques de plus de 4000 aéroports (messages METAR et TAF).

Les stations disponibles sont représentées par des disques jaunes et rouges sur la carte.

Passer la souris dessus pour voir le nom de la station.

Cliquer dessus pour voir les observations et prévisions météorologiques.

Pour changer de carte: cliquez sur les boutons verts avec une croix noire pour zoomer, sur le bouton vert avec un tiret pour effectuer un zoom arrière, ou sur les flèches vertes pour les cartes adjacentes.


METAR-TAF: